createdAt,value
2022-11-27T00:00:46.467Z,6.35
2022-11-27T00:03:33.430Z,6.65
2022-11-27T00:06:24.377Z,6.25
2022-11-27T00:09:15.748Z,5.30
2022-11-27T00:12:03.062Z,5.45
2022-11-27T00:14:54.649Z,5.72
2022-11-27T00:17:42.777Z,6.25
2022-11-27T00:20:30.091Z,6.93
2022-11-27T00:23:16.907Z,6.97
2022-11-27T00:26:07.177Z,7.07
2022-11-27T00:28:54.257Z,5.95
2022-11-27T00:31:41.571Z,6.22
2022-11-27T00:34:28.348Z,6.32
2022-11-27T00:37:15.786Z,5.25
2022-11-27T00:40:02.430Z,7.10
2022-11-27T00:42:50.882Z,4.60
2022-11-27T00:45:37.682Z,6.32
2022-11-27T00:48:24.750Z,6.20
2022-11-27T00:51:14.440Z,5.53
2022-11-27T00:54:02.059Z,6.20
2022-11-27T00:56:48.963Z,4.87
2022-11-27T00:59:37.702Z,4.90
2022-11-27T01:02:24.651Z,5.15
2022-11-27T01:05:11.987Z,5.07
2022-11-27T01:07:58.931Z,4.93
2022-11-27T01:10:54.556Z,4.35
2022-11-27T01:13:42.935Z,4.75
2022-11-27T01:16:33.056Z,4.82
2022-11-27T01:19:19.969Z,4.50
2022-11-27T01:22:07.273Z,3.70
2022-11-27T01:24:54.379Z,4.37
2022-11-27T01:27:41.787Z,4.55
2022-11-27T01:30:28.927Z,4.25
2022-11-27T01:33:18.167Z,4.00
2022-11-27T01:36:07.733Z,4.55
2022-11-27T01:38:55.486Z,3.95
2022-11-27T01:41:43.120Z,3.50
2022-11-27T01:44:51.162Z,4.00
2022-11-27T01:47:44.710Z,3.40
2022-11-27T01:50:38.840Z,3.62
2022-11-27T01:53:26.300Z,4.12
2022-11-27T01:56:14.328Z,3.90
2022-11-27T01:59:02.575Z,3.87
2022-11-27T02:01:50.004Z,3.00
2022-11-27T02:04:37.128Z,3.40
2022-11-27T02:07:26.147Z,3.47
2022-11-27T02:10:14.927Z,3.20
2022-11-27T02:13:06.763Z,4.05
2022-11-27T02:16:01.995Z,3.85
2022-11-27T02:18:57.387Z,3.17
2022-11-27T02:21:48.308Z,3.95
2022-11-27T02:24:56.402Z,3.70
2022-11-27T02:28:11.261Z,4.35
2022-11-27T02:31:07.092Z,3.62
2022-11-27T02:34:00.443Z,4.30
2022-11-27T02:36:54.416Z,3.62
2022-11-27T02:39:49.794Z,3.40
2022-11-27T02:42:40.834Z,3.55
2022-11-27T02:45:33.893Z,4.20
2022-11-27T02:48:31.236Z,3.87
2022-11-27T02:51:22.170Z,4.12
2022-11-27T02:54:12.929Z,4.35
2022-11-27T02:57:03.703Z,4.65
2022-11-27T02:59:52.602Z,4.93
2022-11-27T03:02:44.359Z,3.83
2022-11-27T03:05:39.010Z,4.15
2022-11-27T03:08:33.914Z,3.37
2022-11-27T03:11:21.021Z,5.87
2022-11-27T03:14:11.317Z,3.37
2022-11-27T03:17:06.734Z,3.33
2022-11-27T03:19:55.895Z,3.47
2022-11-27T03:22:44.851Z,4.55
2022-11-27T03:25:31.853Z,3.05
2022-11-27T03:28:19.242Z,3.53
2022-11-27T03:31:06.439Z,4.22
2022-11-27T03:33:55.157Z,3.67
2022-11-27T03:36:41.681Z,3.78
2022-11-27T03:39:31.584Z,3.85
2022-11-27T03:42:25.026Z,3.67
2022-11-27T03:45:25.186Z,3.95
2022-11-27T03:48:24.021Z,3.47
2022-11-27T03:51:22.772Z,3.75
2022-11-27T03:54:20.489Z,3.65
2022-11-27T03:57:16.950Z,4.12
2022-11-27T04:00:08.117Z,3.92
2022-11-27T04:02:55.267Z,3.47
2022-11-27T04:05:42.277Z,4.35
2022-11-27T04:08:29.819Z,4.30
2022-11-27T04:11:17.246Z,4.37
2022-11-27T04:14:05.983Z,4.25
2022-11-27T04:16:52.802Z,4.00
2022-11-27T04:19:40.211Z,3.75
2022-11-27T04:22:27.159Z,4.50
2022-11-27T04:25:14.073Z,4.30
2022-11-27T04:28:00.736Z,3.17
2022-11-27T04:30:54.748Z,3.45
2022-11-27T04:33:41.694Z,3.03
2022-11-27T04:36:29.118Z,4.50
2022-11-27T04:39:16.106Z,4.07
2022-11-27T04:42:03.323Z,4.45
2022-11-27T04:44:50.755Z,3.58
2022-11-27T04:47:38.888Z,4.18
2022-11-27T04:50:26.010Z,4.10
2022-11-27T04:53:13.125Z,3.40
2022-11-27T04:55:59.933Z,3.33
2022-11-27T04:58:47.365Z,3.47
2022-11-27T05:01:34.555Z,4.20
2022-11-27T05:04:23.819Z,3.60
2022-11-27T05:07:10.682Z,3.47
2022-11-27T05:09:57.675Z,4.05
2022-11-27T05:12:44.552Z,3.75
2022-11-27T05:15:31.469Z,3.70
2022-11-27T05:18:18.290Z,3.60
2022-11-27T05:21:08.899Z,3.62
2022-11-27T05:23:55.819Z,4.30
2022-11-27T05:26:43.586Z,3.30
2022-11-27T05:29:30.867Z,3.62
2022-11-27T05:32:18.211Z,3.55
2022-11-27T05:35:05.507Z,3.72
2022-11-27T05:37:54.049Z,3.30
2022-11-27T05:40:41.068Z,3.40
2022-11-27T05:43:28.146Z,3.85
2022-11-27T05:46:17.913Z,3.37
2022-11-27T05:49:06.256Z,4.10
2022-11-27T05:51:52.811Z,4.10
2022-11-27T05:54:41.313Z,3.85
2022-11-27T05:57:28.478Z,4.10
2022-11-27T06:00:16.595Z,4.50
2022-11-27T06:03:04.204Z,4.20
2022-11-27T06:05:50.910Z,3.72
2022-11-27T06:08:38.615Z,3.75
2022-11-27T06:11:26.975Z,3.67
2022-11-27T06:14:14.471Z,3.95
2022-11-27T06:17:01.298Z,3.58
2022-11-27T06:19:48.614Z,4.22
2022-11-27T06:22:35.250Z,4.45
2022-11-27T06:25:22.692Z,3.70
2022-11-27T06:28:10.863Z,3.62
2022-11-27T06:33:45.445Z,3.92
2022-11-27T06:36:34.300Z,3.55
2022-11-27T06:39:21.050Z,4.30
2022-11-27T06:42:08.143Z,4.20
2022-11-27T06:44:56.579Z,3.90
2022-11-27T06:47:43.803Z,3.37
2022-11-27T06:50:30.579Z,3.83
2022-11-27T06:53:19.527Z,3.12
2022-11-27T06:56:08.581Z,3.85
2022-11-27T06:58:57.692Z,3.85
2022-11-27T07:01:45.801Z,3.97
2022-11-27T07:04:32.994Z,3.97
2022-11-27T07:07:20.052Z,3.50
2022-11-27T07:10:08.730Z,3.95
2022-11-27T07:12:55.574Z,4.28
2022-11-27T07:15:43.453Z,3.72
2022-11-27T07:18:32.365Z,3.87
2022-11-27T07:21:20.090Z,3.70
2022-11-27T07:24:07.974Z,3.47
2022-11-27T07:26:55.610Z,3.33
2022-11-27T07:29:42.836Z,3.58
2022-11-27T07:32:30.180Z,3.95
2022-11-27T07:35:18.871Z,4.28
2022-11-27T07:38:06.346Z,4.32
2022-11-27T07:40:53.982Z,4.20
2022-11-27T07:43:42.896Z,3.85
2022-11-27T07:46:30.918Z,4.15
2022-11-27T07:49:18.662Z,3.87
2022-11-27T07:52:07.540Z,4.65
2022-11-27T07:54:55.343Z,4.10
2022-11-27T07:57:42.955Z,5.07
2022-11-27T08:00:30.281Z,4.45
2022-11-27T08:03:17.593Z,4.30
2022-11-27T08:06:04.407Z,4.93
2022-11-27T08:08:54.908Z,4.60
2022-11-27T08:11:41.816Z,3.33
2022-11-27T08:14:29.253Z,4.93
2022-11-27T08:17:16.055Z,5.32
2022-11-27T08:20:04.328Z,5.30
2022-11-27T08:22:51.370Z,3.58
2022-11-27T08:25:40.113Z,4.95
2022-11-27T08:28:27.025Z,4.47
2022-11-27T08:31:15.598Z,4.82
2022-11-27T08:34:02.466Z,4.05
2022-11-27T08:36:49.655Z,4.78
2022-11-27T08:39:36.801Z,4.57
2022-11-27T08:42:25.630Z,4.43
2022-11-27T08:45:12.983Z,4.45
2022-11-27T08:48:00.439Z,4.50
2022-11-27T08:50:47.468Z,5.05
2022-11-27T08:53:36.006Z,3.92
2022-11-27T08:56:24.245Z,4.18
2022-11-27T08:59:13.314Z,4.32
2022-11-27T09:02:00.651Z,4.82
2022-11-27T09:04:47.966Z,4.07
2022-11-27T09:07:34.848Z,3.87
2022-11-27T09:10:22.726Z,3.85
2022-11-27T09:13:09.604Z,3.55
2022-11-27T09:15:58.720Z,4.10
2022-11-27T09:18:46.577Z,4.12
2022-11-27T09:21:33.787Z,3.72
2022-11-27T09:24:20.485Z,3.87
2022-11-27T09:27:08.192Z,3.92
2022-11-27T09:29:55.316Z,3.95
2022-11-27T09:32:44.083Z,4.18
2022-11-27T09:35:31.043Z,4.00
2022-11-27T09:38:18.605Z,4.07
2022-11-27T09:41:14.820Z,4.10
2022-11-27T09:44:07.618Z,4.57
2022-11-27T09:46:56.516Z,4.25
2022-11-27T09:49:50.623Z,4.18
2022-11-27T09:52:42.501Z,4.18
2022-11-27T09:55:33.726Z,4.28
2022-11-27T09:58:27.064Z,4.10
2022-11-27T10:01:16.329Z,3.70
2022-11-27T10:04:03.529Z,3.22
2022-11-27T10:07:10.756Z,3.17
2022-11-27T10:10:09.986Z,3.62
2022-11-27T10:13:05.701Z,3.50
2022-11-27T10:15:57.602Z,3.47
2022-11-27T10:18:51.542Z,3.62
2022-11-27T10:21:47.830Z,3.42
2022-11-27T10:24:47.631Z,3.65
2022-11-27T10:27:44.878Z,3.90
2022-11-27T10:30:34.050Z,3.03
2022-11-27T10:33:26.986Z,3.25
2022-11-27T10:36:16.726Z,2.95
2022-11-27T10:39:07.917Z,3.50
2022-11-27T10:42:02.719Z,2.83
2022-11-27T10:44:54.729Z,3.62
2022-11-27T10:47:44.140Z,2.67
2022-11-27T10:50:31.443Z,3.83
2022-11-27T10:53:27.026Z,3.08
2022-11-27T10:56:48.745Z,3.00
2022-11-27T10:59:42.607Z,2.70
2022-11-27T11:02:32.941Z,2.72
2022-11-27T11:05:40.982Z,3.00
2022-11-27T11:08:32.625Z,3.12
2022-11-27T11:11:27.025Z,2.47
2022-11-27T11:14:19.392Z,3.30
2022-11-27T11:17:18.503Z,2.78
2022-11-27T11:20:16.418Z,2.30
2022-11-27T11:23:03.342Z,3.62
2022-11-27T11:25:53.326Z,3.30
2022-11-27T11:28:50.046Z,3.00
2022-11-27T11:31:40.655Z,2.87
2022-11-27T11:34:31.089Z,2.47
2022-11-27T11:37:23.677Z,3.15
2022-11-27T11:40:27.835Z,3.22
2022-11-27T11:43:26.669Z,3.12
2022-11-27T11:46:19.787Z,2.70
2022-11-27T11:49:16.090Z,2.95
2022-11-27T11:52:26.521Z,2.97
2022-11-27T11:55:28.890Z,2.97
2022-11-27T11:58:41.001Z,2.92
2022-11-27T12:02:06.178Z,3.17
2022-11-27T12:05:21.638Z,2.97
2022-11-27T12:08:41.998Z,2.85
2022-11-27T12:11:37.095Z,2.85
2022-11-27T12:14:40.713Z,2.65
2022-11-27T12:17:43.237Z,2.65
2022-11-27T12:20:42.644Z,2.78
2022-11-27T12:23:59.589Z,2.87
2022-11-27T12:26:59.857Z,2.20
2022-11-27T12:30:13.273Z,3.60
2022-11-27T12:33:29.740Z,2.75
2022-11-27T12:36:29.205Z,3.37
2022-11-27T12:39:25.625Z,2.83
2022-11-27T12:42:22.275Z,2.87
2022-11-27T12:45:20.227Z,3.00
2022-11-27T12:48:15.799Z,2.90
2022-11-27T12:51:08.800Z,2.95
2022-11-27T12:54:01.792Z,3.08
2022-11-27T12:56:54.839Z,2.62
2022-11-27T12:59:47.472Z,2.78
2022-11-27T13:02:39.749Z,3.17
2022-11-27T13:05:30.733Z,2.75
2022-11-27T13:08:24.881Z,3.55
2022-11-27T13:11:14.775Z,3.20
2022-11-27T13:14:08.527Z,3.55
2022-11-27T13:16:59.635Z,2.65
2022-11-27T13:19:50.325Z,3.50
2022-11-27T13:22:38.162Z,3.03
2022-11-27T13:25:26.878Z,3.33
2022-11-27T13:28:25.324Z,3.17
2022-11-27T13:31:20.563Z,3.47
2022-11-27T13:34:12.664Z,3.00
2022-11-27T13:37:01.635Z,3.25
2022-11-27T13:39:49.449Z,3.03
2022-11-27T13:42:37.907Z,2.90
2022-11-27T13:45:29.191Z,3.20
2022-11-27T13:48:34.558Z,3.33
2022-11-27T13:51:28.423Z,3.53
2022-11-27T13:54:18.076Z,3.55
2022-11-27T13:57:14.139Z,3.25
2022-11-27T14:00:04.010Z,2.92
2022-11-27T14:03:03.548Z,3.35
2022-11-27T14:05:53.118Z,3.28
2022-11-27T14:08:40.142Z,3.65
2022-11-27T14:11:40.088Z,3.37
2022-11-27T14:14:29.702Z,3.53
2022-11-27T14:17:27.452Z,3.65
2022-11-27T14:20:26.553Z,3.17
2022-11-27T14:23:29.823Z,3.53
2022-11-27T14:26:24.009Z,3.70
2022-11-27T14:29:12.778Z,3.65
2022-11-27T14:32:01.438Z,3.42
2022-11-27T14:34:49.212Z,4.22
2022-11-27T14:37:36.576Z,3.03
2022-11-27T14:40:28.564Z,3.97
2022-11-27T14:43:17.367Z,3.40
2022-11-27T14:46:08.434Z,3.95
2022-11-27T14:48:57.154Z,3.80
2022-11-27T14:51:48.574Z,3.67
2022-11-27T14:54:40.174Z,2.97
2022-11-27T14:57:30.511Z,3.03
2022-11-27T15:00:19.435Z,3.58
2022-11-27T15:03:11.711Z,3.17
2022-11-27T15:06:00.387Z,3.37
2022-11-27T15:09:15.953Z,3.60
2022-11-27T15:12:01.745Z,4.15
2022-11-27T15:14:58.343Z,3.42
2022-11-27T15:17:49.916Z,3.53
2022-11-27T15:20:40.300Z,3.33
2022-11-27T15:23:29.216Z,3.20
2022-11-27T15:26:30.799Z,3.37
2022-11-27T15:29:36.080Z,4.40
2022-11-27T15:32:26.881Z,3.45
2022-11-27T15:35:16.039Z,4.15
2022-11-27T15:38:10.844Z,3.33
2022-11-27T15:41:01.722Z,3.20
2022-11-27T15:43:48.952Z,3.53
2022-11-27T15:46:36.357Z,3.70
2022-11-27T15:49:25.105Z,4.03
2022-11-27T15:52:11.727Z,4.00
2022-11-27T15:54:59.298Z,2.97
2022-11-27T15:57:46.226Z,3.20
2022-11-27T16:00:33.419Z,3.70
2022-11-27T16:03:22.487Z,3.53
2022-11-27T16:06:10.934Z,3.97
2022-11-27T16:08:59.093Z,4.40
2022-11-27T16:11:45.670Z,4.40
2022-11-27T16:14:32.928Z,3.50
2022-11-27T16:17:19.991Z,3.70
2022-11-27T16:20:08.891Z,4.12
2022-11-27T16:22:57.072Z,3.65
2022-11-27T16:25:44.427Z,3.85
2022-11-27T16:28:31.938Z,4.07
2022-11-27T16:31:19.470Z,3.85
2022-11-27T16:34:06.636Z,3.78
2022-11-27T16:36:53.827Z,3.70
2022-11-27T16:39:42.106Z,3.90
2022-11-27T16:42:29.899Z,3.33
2022-11-27T16:45:17.639Z,3.17
2022-11-27T16:48:05.588Z,3.58
2022-11-27T16:51:03.137Z,3.22
2022-11-27T16:53:52.693Z,3.47
2022-11-27T16:56:41.219Z,3.85
2022-11-27T16:59:28.870Z,3.33
2022-11-27T17:02:15.740Z,3.22
2022-11-27T17:05:03.368Z,3.75
2022-11-27T17:07:50.305Z,3.00
2022-11-27T17:10:37.856Z,2.58
2022-11-27T17:13:26.660Z,3.78
2022-11-27T17:16:13.963Z,3.15
2022-11-27T17:19:03.225Z,3.22
2022-11-27T17:21:51.102Z,3.40
2022-11-27T17:24:40.009Z,2.40
2022-11-27T17:27:27.437Z,2.95
2022-11-27T17:30:16.185Z,3.95
2022-11-27T17:33:03.544Z,3.08
2022-11-27T17:35:50.630Z,2.80
2022-11-27T17:38:38.148Z,3.22
2022-11-27T17:41:26.254Z,3.03
2022-11-27T17:44:14.321Z,4.05
2022-11-27T17:47:02.622Z,4.43
2022-11-27T17:49:50.152Z,3.55
2022-11-27T17:52:37.146Z,3.95
2022-11-27T17:55:24.364Z,4.00
2022-11-27T17:58:11.282Z,3.42
2022-11-27T18:00:58.805Z,3.92
2022-11-27T18:03:48.690Z,3.70
2022-11-27T18:06:36.066Z,3.72
2022-11-27T18:09:23.519Z,2.87
2022-11-27T18:12:10.424Z,3.30
2022-11-27T18:15:01.263Z,3.20
2022-11-27T18:17:49.008Z,3.28
2022-11-27T18:20:38.039Z,3.72
2022-11-27T18:23:25.028Z,3.75
2022-11-27T18:26:14.588Z,4.07
2022-11-27T18:29:03.077Z,3.83
2022-11-27T18:31:51.856Z,4.20
2022-11-27T18:34:39.397Z,4.68
2022-11-27T18:37:28.124Z,3.78
2022-11-27T18:40:15.341Z,3.58
2022-11-27T18:43:02.587Z,4.22
2022-11-27T18:45:49.567Z,4.10
2022-11-27T18:48:38.548Z,3.78
2022-11-27T18:51:26.621Z,3.72
2022-11-27T18:54:15.223Z,3.78
2022-11-27T18:57:02.388Z,4.45
2022-11-27T18:59:51.735Z,4.47
2022-11-27T19:02:46.912Z,3.62
2022-11-27T19:05:36.551Z,4.47
2022-11-27T19:08:23.550Z,5.00
2022-11-27T19:11:14.984Z,4.82
2022-11-27T19:14:02.595Z,4.87
2022-11-27T19:16:50.824Z,3.85
2022-11-27T19:19:54.696Z,4.10
2022-11-27T19:22:42.445Z,3.60
2022-11-27T19:25:30.174Z,4.65
2022-11-27T19:28:19.147Z,4.00
2022-11-27T19:31:07.418Z,3.67
2022-11-27T19:33:55.824Z,3.80
2022-11-27T19:36:42.961Z,4.10
2022-11-27T19:39:30.100Z,4.87
2022-11-27T19:42:17.125Z,4.00
2022-11-27T19:45:06.602Z,4.37
2022-11-27T19:47:53.739Z,4.12
2022-11-27T19:50:43.071Z,4.28
2022-11-27T19:53:30.018Z,3.83
2022-11-27T19:56:17.798Z,4.37
2022-11-27T19:59:06.059Z,3.95
2022-11-27T20:01:55.123Z,4.45
2022-11-27T20:04:44.869Z,4.15
2022-11-27T20:07:32.219Z,4.37
2022-11-27T20:10:20.026Z,4.55
2022-11-27T20:13:06.744Z,4.12
2022-11-27T20:15:55.470Z,5.03
2022-11-27T20:18:44.808Z,3.60
2022-11-27T20:21:32.651Z,4.18
2022-11-27T20:24:19.388Z,4.30
2022-11-27T20:27:06.859Z,4.50
2022-11-27T20:29:54.998Z,4.93
2022-11-27T20:32:42.641Z,4.72
2022-11-27T20:35:30.687Z,4.60
2022-11-27T20:38:17.975Z,4.22
2022-11-27T20:41:06.934Z,4.75
2022-11-27T20:43:56.312Z,5.32
2022-11-27T20:46:43.236Z,4.85
2022-11-27T20:49:33.764Z,5.85
2022-11-27T20:52:22.780Z,4.43
2022-11-27T20:55:10.509Z,4.35
2022-11-27T20:57:57.679Z,4.22
2022-11-27T21:00:44.912Z,4.37
2022-11-27T21:03:32.203Z,4.30
2022-11-27T21:06:23.097Z,4.32
2022-11-27T21:09:12.259Z,4.55
2022-11-27T21:11:59.579Z,4.55
2022-11-27T21:14:46.326Z,5.20
2022-11-27T21:17:33.345Z,4.65
2022-11-27T21:20:20.742Z,5.25
2022-11-27T21:23:07.972Z,5.47
2022-11-27T21:25:56.193Z,5.12
2022-11-27T21:28:43.752Z,5.05
2022-11-27T21:31:34.507Z,5.55
2022-11-27T21:34:25.193Z,4.53
2022-11-27T21:37:12.075Z,5.55
2022-11-27T21:39:59.594Z,5.37
2022-11-27T21:42:47.829Z,5.22
2022-11-27T21:45:37.442Z,5.25
2022-11-27T21:48:25.020Z,5.10
2022-11-27T21:51:15.100Z,5.20
2022-11-27T21:54:02.013Z,5.05
2022-11-27T21:56:52.702Z,5.07
2022-11-27T21:59:43.127Z,5.47
2022-11-27T22:02:30.009Z,5.05
2022-11-27T22:05:18.619Z,5.53
2022-11-27T22:08:05.995Z,5.53
2022-11-27T22:10:53.057Z,5.65
2022-11-27T22:13:41.091Z,5.57
2022-11-27T22:16:31.379Z,4.93
2022-11-27T22:19:18.298Z,5.75
2022-11-27T22:22:05.616Z,5.28
2022-11-27T22:24:52.314Z,5.57
2022-11-27T22:27:39.639Z,5.28
2022-11-27T22:30:26.873Z,5.32
2022-11-27T22:33:15.553Z,5.75
2022-11-27T22:36:11.795Z,5.22
2022-11-27T22:39:00.758Z,5.47
2022-11-27T22:41:47.557Z,5.32
2022-11-27T22:44:34.752Z,5.47
2022-11-27T22:47:22.057Z,5.37
2022-11-27T22:50:11.018Z,6.28
2022-11-27T22:52:58.423Z,6.32
2022-11-27T22:55:45.785Z,6.07
2022-11-27T22:58:35.165Z,5.47
2022-11-27T23:01:26.015Z,5.95
2022-11-27T23:04:13.099Z,5.43
2022-11-27T23:07:01.590Z,4.85
2022-11-27T23:09:48.292Z,5.85
2022-11-27T23:12:35.768Z,5.57
2022-11-27T23:15:22.559Z,5.30
2022-11-27T23:18:10.225Z,5.85
2022-11-27T23:20:56.782Z,5.25
2022-11-27T23:23:45.469Z,5.45
2022-11-27T23:26:32.901Z,5.53
2022-11-27T23:29:20.133Z,4.70
2022-11-27T23:32:06.942Z,5.57
2022-11-27T23:34:54.239Z,5.07
2022-11-27T23:37:41.744Z,5.60
2022-11-27T23:40:30.576Z,4.97
2022-11-27T23:43:16.993Z,4.90
2022-11-27T23:46:04.806Z,5.30
2022-11-27T23:48:51.443Z,5.50
2022-11-27T23:51:38.841Z,4.90
2022-11-27T23:54:25.718Z,5.40
2022-11-27T23:57:14.383Z,5.53
